sensor_id;sensor_type;location;lat;lon;timestamp;P1;durP1;ratioP1;P2;durP2;ratioP2
22861;SDS011;11598;50.652;6.172;2022-09-09T00:25:54;9.13;;;1.80;;
22861;SDS011;11598;50.652;6.172;2022-09-09T00:36:00;13.45;;;2.60;;
22861;SDS011;11598;50.652;6.172;2022-09-09T00:56:25;17.85;;;3.65;;
22861;SDS011;11598;50.652;6.172;2022-09-09T01:06:37;15.20;;;2.77;;
22861;SDS011;11598;50.652;6.172;2022-09-09T01:16:38;9.77;;;2.97;;
22861;SDS011;11598;50.652;6.172;2022-09-09T01:26:41;17.92;;;3.15;;
22861;SDS011;11598;50.652;6.172;2022-09-09T01:46:55;15.73;;;3.28;;
22861;SDS011;11598;50.652;6.172;2022-09-09T02:17:39;11.43;;;2.70;;
22861;SDS011;11598;50.652;6.172;2022-09-09T02:27:42;13.25;;;3.00;;
22861;SDS011;11598;50.652;6.172;2022-09-09T02:37:45;16.63;;;3.10;;
22861;SDS011;11598;50.652;6.172;2022-09-09T02:58:05;15.05;;;3.40;;
22861;SDS011;11598;50.652;6.172;2022-09-09T03:08:08;13.50;;;3.20;;
22861;SDS011;11598;50.652;6.172;2022-09-09T03:18:09;19.67;;;3.47;;
22861;SDS011;11598;50.652;6.172;2022-09-09T03:28:09;20.85;;;3.50;;
22861;SDS011;11598;50.652;6.172;2022-09-09T03:38:11;16.67;;;3.05;;
22861;SDS011;11598;50.652;6.172;2022-09-09T03:48:11;14.05;;;2.83;;
22861;SDS011;11598;50.652;6.172;2022-09-09T03:58:12;12.82;;;2.67;;
22861;SDS011;11598;50.652;6.172;2022-09-09T04:08:14;20.52;;;3.17;;
22861;SDS011;11598;50.652;6.172;2022-09-09T04:18:14;11.52;;;2.88;;
22861;SDS011;11598;50.652;6.172;2022-09-09T04:28:15;19.00;;;3.28;;
22861;SDS011;11598;50.652;6.172;2022-09-09T04:38:17;16.98;;;2.47;;
22861;SDS011;11598;50.652;6.172;2022-09-09T04:48:18;10.43;;;2.00;;
22861;SDS011;11598;50.652;6.172;2022-09-09T04:58:19;10.85;;;2.28;;
22861;SDS011;11598;50.652;6.172;2022-09-09T05:08:21;15.68;;;2.20;;
22861;SDS011;11598;50.652;6.172;2022-09-09T05:18:22;8.35;;;1.85;;
22861;SDS011;11598;50.652;6.172;2022-09-09T05:28:24;14.07;;;2.30;;
22861;SDS011;11598;50.652;6.172;2022-09-09T05:38:25;12.60;;;2.25;;
22861;SDS011;11598;50.652;6.172;2022-09-09T05:48:27;14.93;;;2.10;;
22861;SDS011;11598;50.652;6.172;2022-09-09T05:58:32;12.23;;;2.85;;
22861;SDS011;11598;50.652;6.172;2022-09-09T06:08:34;10.13;;;1.95;;
22861;SDS011;11598;50.652;6.172;2022-09-09T06:18:39;14.82;;;2.55;;
22861;SDS011;11598;50.652;6.172;2022-09-09T06:28:40;16.48;;;2.28;;
22861;SDS011;11598;50.652;6.172;2022-09-09T06:38:42;16.38;;;2.17;;
22861;SDS011;11598;50.652;6.172;2022-09-09T06:48:43;9.77;;;1.40;;
22861;SDS011;11598;50.652;6.172;2022-09-09T07:08:52;13.95;;;1.80;;
22861;SDS011;11598;50.652;6.172;2022-09-09T07:18:54;8.38;;;1.38;;
22861;SDS011;11598;50.652;6.172;2022-09-09T07:28:58;19.08;;;1.73;;
22861;SDS011;11598;50.652;6.172;2022-09-09T07:39:08;6.25;;;1.35;;
22861;SDS011;11598;50.652;6.172;2022-09-09T07:59:14;8.00;;;1.20;;
22861;SDS011;11598;50.652;6.172;2022-09-09T08:09:14;5.65;;;1.00;;
22861;SDS011;11598;50.652;6.172;2022-09-09T08:19:15;8.50;;;1.15;;
22861;SDS011;11598;50.652;6.172;2022-09-09T08:29:16;5.65;;;0.98;;
22861;SDS011;11598;50.652;6.172;2022-09-09T08:39:18;8.52;;;1.00;;
22861;SDS011;11598;50.652;6.172;2022-09-09T08:59:29;6.30;;;0.90;;
22861;SDS011;11598;50.652;6.172;2022-09-09T09:20:02;5.25;;;0.60;;
22861;SDS011;11598;50.652;6.172;2022-09-09T09:30:17;6.10;;;1.20;;
22861;SDS011;11598;50.652;6.172;2022-09-09T09:40:20;6.93;;;1.10;;
22861;SDS011;11598;50.652;6.172;2022-09-09T09:50:22;7.18;;;0.70;;
22861;SDS011;11598;50.652;6.172;2022-09-09T10:00:25;4.22;;;0.80;;
22861;SDS011;11598;50.652;6.172;2022-09-09T10:10:26;4.93;;;0.80;;
22861;SDS011;11598;50.652;6.172;2022-09-09T10:41:04;5.03;;;1.08;;
22861;SDS011;11598;50.652;6.172;2022-09-09T10:51:40;6.78;;;1.35;;
22861;SDS011;11598;50.652;6.172;2022-09-09T11:02:01;7.95;;;1.00;;
22861;SDS011;11598;50.652;6.172;2022-09-09T11:12:13;5.22;;;0.85;;
22861;SDS011;11598;50.652;6.172;2022-09-09T11:22:36;4.25;;;0.80;;
22861;SDS011;11598;50.652;6.172;2022-09-09T11:32:56;5.47;;;0.73;;
22861;SDS011;11598;50.652;6.172;2022-09-09T11:43:08;4.07;;;0.93;;
22861;SDS011;11598;50.652;6.172;2022-09-09T11:53:19;7.57;;;1.02;;
22861;SDS011;11598;50.652;6.172;2022-09-09T12:13:57;4.20;;;0.80;;
22861;SDS011;11598;50.652;6.172;2022-09-09T12:24:03;4.57;;;0.77;;
22861;SDS011;11598;50.652;6.172;2022-09-09T12:34:10;2.60;;;0.52;;
22861;SDS011;11598;50.652;6.172;2022-09-09T12:44:15;2.85;;;0.65;;
22861;SDS011;11598;50.652;6.172;2022-09-09T12:54:15;4.88;;;0.70;;
22861;SDS011;11598;50.652;6.172;2022-09-09T13:04:19;3.55;;;0.60;;
22861;SDS011;11598;50.652;6.172;2022-09-09T13:14:26;2.42;;;0.52;;
22861;SDS011;11598;50.652;6.172;2022-09-09T13:24:33;26.70;;;3.35;;
22861;SDS011;11598;50.652;6.172;2022-09-09T13:34:35;13.85;;;3.05;;
22861;SDS011;11598;50.652;6.172;2022-09-09T13:44:36;14.90;;;3.00;;
22861;SDS011;11598;50.652;6.172;2022-09-09T13:54:39;13.00;;;2.53;;
22861;SDS011;11598;50.652;6.172;2022-09-09T14:04:40;23.52;;;3.63;;
22861;SDS011;11598;50.652;6.172;2022-09-09T14:14:41;9.85;;;2.38;;
22861;SDS011;11598;50.652;6.172;2022-09-09T14:24:44;15.65;;;3.40;;
22861;SDS011;11598;50.652;6.172;2022-09-09T14:34:44;15.93;;;3.42;;
22861;SDS011;11598;50.652;6.172;2022-09-09T14:44:44;15.07;;;2.85;;
22861;SDS011;11598;50.652;6.172;2022-09-09T14:54:45;15.43;;;3.08;;
22861;SDS011;11598;50.652;6.172;2022-09-09T15:04:45;8.13;;;2.00;;
22861;SDS011;11598;50.652;6.172;2022-09-09T15:14:46;10.93;;;2.63;;
22861;SDS011;11598;50.652;6.172;2022-09-09T15:24:47;12.35;;;2.67;;
22861;SDS011;11598;50.652;6.172;2022-09-09T15:34:47;10.43;;;3.03;;
22861;SDS011;11598;50.652;6.172;2022-09-09T15:44:51;8.60;;;1.90;;
22861;SDS011;11598;50.652;6.172;2022-09-09T15:54:51;7.25;;;2.03;;
22861;SDS011;11598;50.652;6.172;2022-09-09T16:04:52;9.23;;;2.00;;
22861;SDS011;11598;50.652;6.172;2022-09-09T16:14:52;9.20;;;1.88;;
22861;SDS011;11598;50.652;6.172;2022-09-09T16:24:52;8.95;;;2.53;;
22861;SDS011;11598;50.652;6.172;2022-09-09T16:34:53;9.80;;;2.28;;
22861;SDS011;11598;50.652;6.172;2022-09-09T16:44:53;11.27;;;2.13;;
22861;SDS011;11598;50.652;6.172;2022-09-09T16:54:53;9.13;;;2.05;;
22861;SDS011;11598;50.652;6.172;2022-09-09T17:04:54;8.80;;;2.22;;
22861;SDS011;11598;50.652;6.172;2022-09-09T17:14:55;10.60;;;2.47;;
22861;SDS011;11598;50.652;6.172;2022-09-09T17:24:55;8.98;;;2.35;;
22861;SDS011;11598;50.652;6.172;2022-09-09T17:34:56;10.13;;;2.58;;
22861;SDS011;11598;50.652;6.172;2022-09-09T17:44:56;14.18;;;3.53;;
22861;SDS011;11598;50.652;6.172;2022-09-09T17:54:56;18.38;;;3.53;;
22861;SDS011;11598;50.652;6.172;2022-09-09T18:04:58;10.43;;;2.28;;
22861;SDS011;11598;50.652;6.172;2022-09-09T18:14:58;11.20;;;2.83;;
22861;SDS011;11598;50.652;6.172;2022-09-09T18:24:58;10.70;;;2.35;;
22861;SDS011;11598;50.652;6.172;2022-09-09T18:34:59;8.32;;;2.30;;
22861;SDS011;11598;50.652;6.172;2022-09-09T18:45:00;8.20;;;2.47;;
22861;SDS011;11598;50.652;6.172;2022-09-09T18:55:00;9.07;;;2.88;;
22861;SDS011;11598;50.652;6.172;2022-09-09T19:05:01;15.43;;;3.20;;
22861;SDS011;11598;50.652;6.172;2022-09-09T19:15:03;13.18;;;3.70;;
22861;SDS011;11598;50.652;6.172;2022-09-09T19:25:04;10.00;;;2.72;;
22861;SDS011;11598;50.652;6.172;2022-09-09T19:35:06;15.30;;;3.15;;
22861;SDS011;11598;50.652;6.172;2022-09-09T19:45:07;13.82;;;3.20;;
22861;SDS011;11598;50.652;6.172;2022-09-09T19:55:09;14.25;;;2.67;;
22861;SDS011;11598;50.652;6.172;2022-09-09T20:05:10;12.35;;;3.17;;
22861;SDS011;11598;50.652;6.172;2022-09-09T20:25:15;18.65;;;3.08;;
22861;SDS011;11598;50.652;6.172;2022-09-09T20:35:15;9.25;;;3.00;;
22861;SDS011;11598;50.652;6.172;2022-09-09T20:45:16;13.45;;;2.63;;
22861;SDS011;11598;50.652;6.172;2022-09-09T20:55:16;9.93;;;2.95;;
22861;SDS011;11598;50.652;6.172;2022-09-09T21:05:17;13.98;;;3.13;;
22861;SDS011;11598;50.652;6.172;2022-09-09T21:15:18;9.85;;;3.03;;
22861;SDS011;11598;50.652;6.172;2022-09-09T21:25:19;14.27;;;3.13;;
22861;SDS011;11598;50.652;6.172;2022-09-09T21:45:45;17.30;;;3.40;;
22861;SDS011;11598;50.652;6.172;2022-09-09T21:55:47;9.85;;;2.50;;
22861;SDS011;11598;50.652;6.172;2022-09-09T22:05:47;13.82;;;1.90;;
22861;SDS011;11598;50.652;6.172;2022-09-09T22:15:48;16.67;;;2.67;;
22861;SDS011;11598;50.652;6.172;2022-09-09T22:25:49;5.38;;;1.85;;
22861;SDS011;11598;50.652;6.172;2022-09-09T22:35:49;10.50;;;2.10;;
22861;SDS011;11598;50.652;6.172;2022-09-09T22:45:51;8.88;;;1.85;;
22861;SDS011;11598;50.652;6.172;2022-09-09T22:55:55;8.45;;;1.60;;
22861;SDS011;11598;50.652;6.172;2022-09-09T23:05:59;9.18;;;2.13;;
22861;SDS011;11598;50.652;6.172;2022-09-09T23:16:07;11.60;;;2.60;;
22861;SDS011;11598;50.652;6.172;2022-09-09T23:26:12;10.48;;;2.50;;
22861;SDS011;11598;50.652;6.172;2022-09-09T23:36:21;8.77;;;2.15;;
22861;SDS011;11598;50.652;6.172;2022-09-09T23:46:24;8.93;;;1.90;;
22861;SDS011;11598;50.652;6.172;2022-09-09T23:56:28;9.63;;;2.20;;
